Terminal Aerodrome Forecast
Issued by NWS

Home | Current Version | Previous Version | Text Only | Print | Product List | Glossary On
Versions: 1 2 3 4 5 6 7 8 9 10 11 12 13 14
000
FTUS45 KTFX 290520
TAFLWT
TAF
KLWT 290520Z 2906/3006 12008KT P6SM SCT150
     FM291200 VRB06KT P6SM SCT090 BKN150
     FM292000 09006KT P6SM SCT080=

USA.gov is the U.S. government's official web portal to all federal, state and local government web resources and services.